sensor_id;sensor_type;location;lat;lon;timestamp;pressure;altitude;pressure_sealevel;temperature;humidity
30897;BME280;64229;52.246;21.054;2023-04-07T00:01:13;100450.16;;;4.65;100.00
30897;BME280;64229;52.246;21.054;2023-04-07T00:03:39;100443.97;;;4.72;100.00
30897;BME280;64229;52.246;21.054;2023-04-07T00:06:05;100443.81;;;4.67;100.00
30897;BME280;64229;52.246;21.054;2023-04-07T00:08:31;100447.94;;;4.81;100.00
30897;BME280;64229;52.246;21.054;2023-04-07T00:10:56;100442.56;;;4.87;100.00
30897;BME280;64229;52.246;21.054;2023-04-07T00:13:22;100410.06;;;4.69;100.00
30897;BME280;64229;52.246;21.054;2023-04-07T00:15:48;100449.69;;;4.87;100.00
30897;BME280;64229;52.246;21.054;2023-04-07T00:18:13;100442.78;;;4.86;100.00
30897;BME280;64229;52.246;21.054;2023-04-07T00:20:38;100427.44;;;4.76;100.00
30897;BME280;64229;52.246;21.054;2023-04-07T00:23:04;100438.78;;;4.95;100.00
30897;BME280;64229;52.246;21.054;2023-04-07T00:25:29;100433.47;;;4.83;100.00
30897;BME280;64229;52.246;21.054;2023-04-07T00:27:55;100442.13;;;4.90;100.00
30897;BME280;64229;52.246;21.054;2023-04-07T00:30:20;100437.50;;;4.86;100.00
30897;BME280;64229;52.246;21.054;2023-04-07T00:32:45;100439.91;;;4.87;100.00
30897;BME280;64229;52.246;21.054;2023-04-07T00:35:11;100433.16;;;4.91;100.00
30897;BME280;64229;52.246;21.054;2023-04-07T00:37:36;100435.28;;;5.01;100.00
30897;BME280;64229;52.246;21.054;2023-04-07T00:40:02;100436.72;;;4.97;100.00
30897;BME280;64229;52.246;21.054;2023-04-07T00:42:28;100431.59;;;5.02;100.00
30897;BME280;64229;52.246;21.054;2023-04-07T00:44:53;100427.19;;;4.96;100.00
30897;BME280;64229;52.246;21.054;2023-04-07T00:47:19;100433.78;;;5.05;100.00
30897;BME280;64229;52.246;21.054;2023-04-07T00:49:44;100423.44;;;5.04;100.00
30897;BME280;64229;52.246;21.054;2023-04-07T00:52:10;100438.44;;;4.91;100.00
30897;BME280;64229;52.246;21.054;2023-04-07T00:54:37;100423.28;;;4.99;100.00
30897;BME280;64229;52.246;21.054;2023-04-07T00:57:03;100422.13;;;4.94;100.00
30897;BME280;64229;52.246;21.054;2023-04-07T00:59:28;100421.59;;;5.04;100.00
30897;BME280;64229;52.246;21.054;2023-04-07T01:04:49;100420.66;;;5.10;100.00
30897;BME280;64229;52.246;21.054;2023-04-07T01:07:23;100415.53;;;5.15;100.00
30897;BME280;64229;52.246;21.054;2023-04-07T01:09:57;100416.41;;;5.09;100.00
30897;BME280;64229;52.246;21.054;2023-04-07T01:12:35;100416.09;;;5.17;100.00
30897;BME280;64229;52.246;21.054;2023-04-07T01:15:08;100416.47;;;5.21;100.00
30897;BME280;64229;52.246;21.054;2023-04-07T01:17:34;100417.47;;;5.20;100.00
30897;BME280;64229;52.246;21.054;2023-04-07T01:20:03;100414.72;;;5.15;100.00
30897;BME280;64229;52.246;21.054;2023-04-07T01:22:36;100414.50;;;5.16;100.00
30897;BME280;64229;52.246;21.054;2023-04-07T01:25:21;100409.19;;;5.16;100.00
30897;BME280;64229;52.246;21.054;2023-04-07T01:30:30;100410.81;;;5.17;100.00
30897;BME280;64229;52.246;21.054;2023-04-07T01:32:58;100383.47;;;5.23;100.00
30897;BME280;64229;52.246;21.054;2023-04-07T01:35:25;100404.31;;;5.32;100.00
30897;BME280;64229;52.246;21.054;2023-04-07T01:37:52;100407.88;;;5.37;100.00
30897;BME280;64229;52.246;21.054;2023-04-07T01:40:19;100404.31;;;5.32;100.00
30897;BME280;64229;52.246;21.054;2023-04-07T01:42:46;100408.66;;;5.38;100.00
30897;BME280;64229;52.246;21.054;2023-04-07T01:45:12;100400.38;;;5.34;100.00
30897;BME280;64229;52.246;21.054;2023-04-07T01:47:39;100404.66;;;5.35;100.00
30897;BME280;64229;52.246;21.054;2023-04-07T01:50:06;100404.53;;;5.42;100.00
30897;BME280;64229;52.246;21.054;2023-04-07T01:52:34;100387.25;;;5.28;100.00
30897;BME280;64229;52.246;21.054;2023-04-07T01:54:59;100398.56;;;5.35;100.00
30897;BME280;64229;52.246;21.054;2023-04-07T01:57:25;100404.09;;;5.45;100.00
30897;BME280;64229;52.246;21.054;2023-04-07T01:59:50;100403.53;;;5.43;100.00
30897;BME280;64229;52.246;21.054;2023-04-07T02:02:16;100405.34;;;5.42;100.00
30897;BME280;64229;52.246;21.054;2023-04-07T02:04:51;100399.47;;;5.52;100.00
30897;BME280;64229;52.246;21.054;2023-04-07T02:07:23;100399.28;;;5.54;100.00
30897;BME280;64229;52.246;21.054;2023-04-07T02:09:55;100395.34;;;5.56;100.00
30897;BME280;64229;52.246;21.054;2023-04-07T02:12:22;100379.22;;;5.34;100.00
30897;BME280;64229;52.246;21.054;2023-04-07T02:14:50;100387.03;;;5.52;100.00
30897;BME280;64229;52.246;21.054;2023-04-07T02:17:16;100394.66;;;5.61;100.00
30897;BME280;64229;52.246;21.054;2023-04-07T02:19:43;100405.84;;;5.74;100.00
30897;BME280;64229;52.246;21.054;2023-04-07T02:22:10;100398.81;;;5.68;100.00
30897;BME280;64229;52.246;21.054;2023-04-07T02:24:36;100409.75;;;5.72;100.00
30897;BME280;64229;52.246;21.054;2023-04-07T02:27:01;100407.47;;;5.75;100.00
30897;BME280;64229;52.246;21.054;2023-04-07T02:29:27;100399.84;;;5.67;100.00
30897;BME280;64229;52.246;21.054;2023-04-07T02:31:52;100398.91;;;5.62;100.00
30897;BME280;64229;52.246;21.054;2023-04-07T02:34:17;100388.56;;;5.60;100.00
30897;BME280;64229;52.246;21.054;2023-04-07T02:36:43;100399.97;;;5.72;100.00
30897;BME280;64229;52.246;21.054;2023-04-07T02:39:08;100389.50;;;5.77;100.00
30897;BME280;64229;52.246;21.054;2023-04-07T02:41:34;100395.38;;;5.79;100.00
30897;BME280;64229;52.246;21.054;2023-04-07T02:43:59;100394.66;;;5.84;100.00
30897;BME280;64229;52.246;21.054;2023-04-07T02:46:25;100402.59;;;5.84;100.00
30897;BME280;64229;52.246;21.054;2023-04-07T02:48:50;100400.75;;;5.85;100.00
30897;BME280;64229;52.246;21.054;2023-04-07T02:51:16;100383.16;;;5.78;100.00
30897;BME280;64229;52.246;21.054;2023-04-07T02:53:41;100400.66;;;5.79;100.00
30897;BME280;64229;52.246;21.054;2023-04-07T02:56:07;100396.75;;;5.82;100.00
30897;BME280;64229;52.246;21.054;2023-04-07T02:58:32;100391.56;;;5.75;100.00
30897;BME280;64229;52.246;21.054;2023-04-07T03:00:57;100397.91;;;5.74;100.00
30897;BME280;64229;52.246;21.054;2023-04-07T03:03:22;100399.75;;;5.86;100.00
30897;BME280;64229;52.246;21.054;2023-04-07T03:05:48;100398.72;;;5.87;100.00
30897;BME280;64229;52.246;21.054;2023-04-07T03:08:13;100398.34;;;5.83;100.00
30897;BME280;64229;52.246;21.054;2023-04-07T03:10:38;100402.84;;;5.82;100.00
30897;BME280;64229;52.246;21.054;2023-04-07T03:13:04;100401.59;;;5.85;100.00
30897;BME280;64229;52.246;21.054;2023-04-07T03:15:30;100405.50;;;5.94;100.00
30897;BME280;64229;52.246;21.054;2023-04-07T03:17:55;100399.88;;;5.91;100.00
30897;BME280;64229;52.246;21.054;2023-04-07T03:20:21;100405.06;;;5.97;100.00
30897;BME280;64229;52.246;21.054;2023-04-07T03:22:46;100402.59;;;5.84;100.00
30897;BME280;64229;52.246;21.054;2023-04-07T03:25:12;100406.66;;;5.87;100.00
30897;BME280;64229;52.246;21.054;2023-04-07T03:27:38;100401.50;;;5.92;100.00
30897;BME280;64229;52.246;21.054;2023-04-07T03:30:03;100405.38;;;5.89;100.00
30897;BME280;64229;52.246;21.054;2023-04-07T03:32:29;100408.16;;;5.94;100.00
30897;BME280;64229;52.246;21.054;2023-04-07T03:34:54;100416.47;;;5.98;100.00
30897;BME280;64229;52.246;21.054;2023-04-07T03:37:20;100406.34;;;6.06;100.00
30897;BME280;64229;52.246;21.054;2023-04-07T03:39:45;100408.75;;;6.08;100.00
30897;BME280;64229;52.246;21.054;2023-04-07T03:42:11;100407.25;;;6.12;100.00
30897;BME280;64229;52.246;21.054;2023-04-07T03:44:37;100407.25;;;6.12;100.00
30897;BME280;64229;52.246;21.054;2023-04-07T03:47:02;100413.00;;;6.09;100.00
30897;BME280;64229;52.246;21.054;2023-04-07T03:49:28;100389.03;;;6.04;100.00
30897;BME280;64229;52.246;21.054;2023-04-07T03:51:53;100406.91;;;6.08;100.00
30897;BME280;64229;52.246;21.054;2023-04-07T03:54:18;100406.91;;;6.08;100.00
30897;BME280;64229;52.246;21.054;2023-04-07T03:56:44;100408.59;;;6.26;100.00
30897;BME280;64229;52.246;21.054;2023-04-07T03:59:09;100406.09;;;6.20;100.00
30897;BME280;64229;52.246;21.054;2023-04-07T04:01:35;100400.22;;;6.18;100.00
30897;BME280;64229;52.246;21.054;2023-04-07T04:04:01;100403.44;;;6.20;100.00
30897;BME280;64229;52.246;21.054;2023-04-07T04:06:26;100401.34;;;6.22;100.00
30897;BME280;64229;52.246;21.054;2023-04-07T04:08:52;100401.34;;;6.22;100.00
30897;BME280;64229;52.246;21.054;2023-04-07T04:11:17;100407.22;;;6.24;100.00
30897;BME280;64229;52.246;21.054;2023-04-07T04:13:42;100404.59;;;6.12;100.00
30897;BME280;64229;52.246;21.054;2023-04-07T04:16:08;100397.78;;;6.16;100.00
30897;BME280;64229;52.246;21.054;2023-04-07T04:18:33;100409.19;;;6.17;100.00
30897;BME280;64229;52.246;21.054;2023-04-07T04:20:59;100398.81;;;6.15;100.00
30897;BME280;64229;52.246;21.054;2023-04-07T04:23:24;100413.31;;;6.24;100.00
30897;BME280;64229;52.246;21.054;2023-04-07T04:25:49;100421.41;;;6.29;100.00
30897;BME280;64229;52.246;21.054;2023-04-07T04:28:15;100419.66;;;6.23;100.00
30897;BME280;64229;52.246;21.054;2023-04-07T04:30:41;100428.31;;;6.30;100.00
30897;BME280;64229;52.246;21.054;2023-04-07T04:33:06;100423.81;;;6.31;100.00
30897;BME280;64229;52.246;21.054;2023-04-07T04:35:31;100425.44;;;6.32;100.00
30897;BME280;64229;52.246;21.054;2023-04-07T04:37:57;100416.09;;;6.29;100.00
30897;BME280;64229;52.246;21.054;2023-04-07T04:40:22;100422.31;;;6.23;100.00
30897;BME280;64229;52.246;21.054;2023-04-07T04:42:48;100423.03;;;6.19;100.00
30897;BME280;64229;52.246;21.054;2023-04-07T04:45:13;100421.28;;;6.24;100.00
30897;BME280;64229;52.246;21.054;2023-04-07T04:47:38;100424.94;;;6.35;100.00
30897;BME280;64229;52.246;21.054;2023-04-07T04:50:05;100411.81;;;6.17;100.00
30897;BME280;64229;52.246;21.054;2023-04-07T04:52:31;100423.81;;;6.31;100.00
30897;BME280;64229;52.246;21.054;2023-04-07T04:54:56;100431.44;;;6.27;100.00
30897;BME280;64229;52.246;21.054;2023-04-07T04:57:22;100429.91;;;6.31;100.00
30897;BME280;64229;52.246;21.054;2023-04-07T04:59:47;100429.81;;;6.38;100.00
30897;BME280;64229;52.246;21.054;2023-04-07T05:02:12;100431.63;;;6.37;100.00
30897;BME280;64229;52.246;21.054;2023-04-07T05:04:38;100426.44;;;6.43;100.00
30897;BME280;64229;52.246;21.054;2023-04-07T05:07:03;100428.06;;;6.44;100.00
30897;BME280;64229;52.246;21.054;2023-04-07T05:09:28;100431.84;;;6.48;100.00
30897;BME280;64229;52.246;21.054;2023-04-07T05:11:54;100432.63;;;6.48;100.00
30897;BME280;64229;52.246;21.054;2023-04-07T05:14:20;100409.03;;;6.35;100.00
30897;BME280;64229;52.246;21.054;2023-04-07T05:16:45;100434.41;;;6.43;100.00
30897;BME280;64229;52.246;21.054;2023-04-07T05:19:10;100430.47;;;6.45;100.00
30897;BME280;64229;52.246;21.054;2023-04-07T05:21:36;100427.13;;;6.50;100.00
30897;BME280;64229;52.246;21.054;2023-04-07T05:24:01;100431.84;;;6.48;100.00
30897;BME280;64229;52.246;21.054;2023-04-07T05:26:26;100436.44;;;6.52;100.00
30897;BME280;64229;52.246;21.054;2023-04-07T05:28:52;100433.25;;;6.50;100.00
30897;BME280;64229;52.246;21.054;2023-04-07T05:31:17;100428.50;;;6.52;100.00
30897;BME280;64229;52.246;21.054;2023-04-07T05:33:42;100433.56;;;6.54;100.00
30897;BME280;64229;52.246;21.054;2023-04-07T05:36:08;100432.75;;;6.53;100.00
30897;BME280;64229;52.246;21.054;2023-04-07T05:38:33;100439.09;;;6.52;100.00
30897;BME280;64229;52.246;21.054;2023-04-07T05:40:59;100438.53;;;6.50;100.00
30897;BME280;64229;52.246;21.054;2023-04-07T05:43:24;100421.47;;;6.46;100.00
30897;BME280;64229;52.246;21.054;2023-04-07T05:45:49;100430.31;;;6.63;100.00
30897;BME280;64229;52.246;21.054;2023-04-07T05:48:15;100432.38;;;6.73;100.00
30897;BME280;64229;52.246;21.054;2023-04-07T05:50:41;100435.34;;;6.77;100.00
30897;BME280;64229;52.246;21.054;2023-04-07T05:53:06;100430.75;;;6.72;100.00
30897;BME280;64229;52.246;21.054;2023-04-07T05:55:32;100431.81;;;6.71;100.00
30897;BME280;64229;52.246;21.054;2023-04-07T05:57:57;100442.50;;;6.76;100.00
30897;BME280;64229;52.246;21.054;2023-04-07T06:00:22;100442.59;;;6.81;100.00
30897;BME280;64229;52.246;21.054;2023-04-07T06:02:48;100439.81;;;6.88;100.00
30897;BME280;64229;52.246;21.054;2023-04-07T06:05:13;100441.16;;;6.90;100.00
30897;BME280;64229;52.246;21.054;2023-04-07T06:07:38;100404.34;;;6.65;100.00
30897;BME280;64229;52.246;21.054;2023-04-07T06:10:04;100440.47;;;6.95;100.00
30897;BME280;64229;52.246;21.054;2023-04-07T06:12:30;100432.75;;;6.93;100.00
30897;BME280;64229;52.246;21.054;2023-04-07T06:14:55;100436.22;;;6.94;100.00
30897;BME280;64229;52.246;21.054;2023-04-07T06:17:21;100430.00;;;6.88;100.00
30897;BME280;64229;52.246;21.054;2023-04-07T06:19:47;100441.41;;;6.89;100.00
30897;BME280;64229;52.246;21.054;2023-04-07T06:22:13;100432.94;;;7.04;100.00
30897;BME280;64229;52.246;21.054;2023-04-07T06:24:38;100430.63;;;7.07;100.00
30897;BME280;64229;52.246;21.054;2023-04-07T06:27:04;100422.91;;;7.06;100.00
30897;BME280;64229;52.246;21.054;2023-04-07T06:29:31;100426.28;;;7.18;100.00
30897;BME280;64229;52.246;21.054;2023-04-07T06:31:57;100430.16;;;7.27;100.00
30897;BME280;64229;52.246;21.054;2023-04-07T06:34:22;100430.34;;;7.37;100.00
30897;BME280;64229;52.246;21.054;2023-04-07T06:36:48;100424.66;;;7.45;100.00
30897;BME280;64229;52.246;21.054;2023-04-07T06:39:13;100425.22;;;7.47;100.00
30897;BME280;64229;52.246;21.054;2023-04-07T06:41:39;100424.16;;;7.48;100.00
30897;BME280;64229;52.246;21.054;2023-04-07T06:44:07;100422.31;;;7.49;100.00
30897;BME280;64229;52.246;21.054;2023-04-07T06:46:33;100433.41;;;7.63;100.00
30897;BME280;64229;52.246;21.054;2023-04-07T06:48:58;100420.69;;;7.65;100.00
30897;BME280;64229;52.246;21.054;2023-04-07T06:51:24;100439.13;;;7.71;100.00
30897;BME280;64229;52.246;21.054;2023-04-07T06:53:51;100438.56;;;7.69;100.00
30897;BME280;64229;52.246;21.054;2023-04-07T06:56:16;100442.84;;;7.70;100.00
30897;BME280;64229;52.246;21.054;2023-04-07T06:58:41;100437.13;;;7.78;100.00
30897;BME280;64229;52.246;21.054;2023-04-07T07:01:07;100426.56;;;7.83;100.00
30897;BME280;64229;52.246;21.054;2023-04-07T07:03:32;100428.56;;;7.93;100.00
30897;BME280;64229;52.246;21.054;2023-04-07T07:05:58;100426.63;;;8.05;100.00
30897;BME280;64229;52.246;21.054;2023-04-07T07:08:25;100424.69;;;8.01;100.00
30897;BME280;64229;52.246;21.054;2023-04-07T07:10:51;100420.44;;;8.00;100.00
30897;BME280;64229;52.246;21.054;2023-04-07T07:13:18;100424.22;;;8.04;100.00
30897;BME280;64229;52.246;21.054;2023-04-07T07:15:43;100427.50;;;8.11;100.00
30897;BME280;64229;52.246;21.054;2023-04-07T07:18:09;100433.06;;;8.09;100.00
30897;BME280;64229;52.246;21.054;2023-04-07T07:20:34;100436.28;;;8.11;100.00
30897;BME280;64229;52.246;21.054;2023-04-07T07:22:59;100435.63;;;8.21;100.00
30897;BME280;64229;52.246;21.054;2023-04-07T07:25:25;100433.09;;;8.31;100.00
30897;BME280;64229;52.246;21.054;2023-04-07T07:27:53;100442.94;;;8.31;100.00
30897;BME280;64229;52.246;21.054;2023-04-07T07:30:22;100438.25;;;8.38;100.00
30897;BME280;64229;52.246;21.054;2023-04-07T07:32:48;100427.38;;;8.39;100.00
30897;BME280;64229;52.246;21.054;2023-04-07T07:35:14;100442.78;;;8.59;100.00
30897;BME280;64229;52.246;21.054;2023-04-07T07:37:39;100452.31;;;8.77;100.00
30897;BME280;64229;52.246;21.054;2023-04-07T07:40:05;100450.75;;;8.81;100.00
30897;BME280;64229;52.246;21.054;2023-04-07T07:42:31;100452.19;;;8.89;100.00
30897;BME280;64229;52.246;21.054;2023-04-07T07:44:56;100449.09;;;8.97;100.00
30897;BME280;64229;52.246;21.054;2023-04-07T07:47:22;100449.13;;;9.02;100.00
30897;BME280;64229;52.246;21.054;2023-04-07T07:49:47;100458.41;;;8.99;100.00
30897;BME280;64229;52.246;21.054;2023-04-07T07:52:13;100452.03;;;9.01;100.00
30897;BME280;64229;52.246;21.054;2023-04-07T07:54:39;100450.53;;;8.83;100.00
30897;BME280;64229;52.246;21.054;2023-04-07T07:57:04;100453.19;;;8.83;100.00
30897;BME280;64229;52.246;21.054;2023-04-07T07:59:30;100458.84;;;8.91;100.00
30897;BME280;64229;52.246;21.054;2023-04-07T08:01:56;100453.78;;;8.90;100.00
30897;BME280;64229;52.246;21.054;2023-04-07T08:04:21;100458.84;;;8.91;100.00
30897;BME280;64229;52.246;21.054;2023-04-07T08:06:47;100459.44;;;8.93;100.00
30897;BME280;64229;52.246;21.054;2023-04-07T08:09:13;100456.00;;;8.98;100.00
30897;BME280;64229;52.246;21.054;2023-04-07T08:11:39;100461.50;;;9.13;100.00
30897;BME280;64229;52.246;21.054;2023-04-07T08:14:05;100462.06;;;9.15;100.00
30897;BME280;64229;52.246;21.054;2023-04-07T08:16:31;100462.16;;;9.25;100.00
30897;BME280;64229;52.246;21.054;2023-04-07T08:18:56;100457.16;;;9.34;100.00
30897;BME280;64229;52.246;21.054;2023-04-07T08:21:21;100448.47;;;9.44;100.00
30897;BME280;64229;52.246;21.054;2023-04-07T08:23:47;100463.47;;;9.55;100.00
30897;BME280;64229;52.246;21.054;2023-04-07T08:26:12;100453.09;;;9.53;100.00
30897;BME280;64229;52.246;21.054;2023-04-07T08:28:37;100451.84;;;9.66;100.00
30897;BME280;64229;52.246;21.054;2023-04-07T08:31:03;100448.97;;;9.73;100.00
30897;BME280;64229;52.246;21.054;2023-04-07T08:33:29;100451.47;;;9.84;100.00
30897;BME280;64229;52.246;21.054;2023-04-07T08:35:54;100436.44;;;9.68;100.00
30897;BME280;64229;52.246;21.054;2023-04-07T08:38:19;100460.19;;;9.75;100.00
30897;BME280;64229;52.246;21.054;2023-04-07T08:40:45;100446.84;;;9.75;100.00
30897;BME280;64229;52.246;21.054;2023-04-07T08:43:11;100457.34;;;9.86;100.00
30897;BME280;64229;52.246;21.054;2023-04-07T08:45:39;100452.25;;;9.80;100.00
30897;BME280;64229;52.246;21.054;2023-04-07T08:48:16;100452.59;;;9.94;100.00
30897;BME280;64229;52.246;21.054;2023-04-07T08:50:45;100452.09;;;9.97;100.00
30897;BME280;64229;52.246;21.054;2023-04-07T08:53:17;100454.00;;;10.01;100.00
30897;BME280;64229;52.246;21.054;2023-04-07T08:55:43;100451.59;;;10.00;100.00
30897;BME280;64229;52.246;21.054;2023-04-07T08:58:09;100459.81;;;9.98;100.00
30897;BME280;64229;52.246;21.054;2023-04-07T09:00:39;100446.81;;;10.02;100.00
30897;BME280;64229;52.246;21.054;2023-04-07T09:03:07;100452.16;;;10.07;100.00
30897;BME280;64229;52.246;21.054;2023-04-07T09:05:33;100449.28;;;10.13;100.00
30897;BME280;64229;52.246;21.054;2023-04-07T09:07:59;100458.03;;;10.09;100.00
30897;BME280;64229;52.246;21.054;2023-04-07T09:10:24;100458.88;;;10.14;100.00
30897;BME280;64229;52.246;21.054;2023-04-07T09:12:50;100456.84;;;10.27;100.00
30897;BME280;64229;52.246;21.054;2023-04-07T09:15:15;100459.69;;;10.20;100.00
30897;BME280;64229;52.246;21.054;2023-04-07T09:17:40;100453.09;;;10.23;100.00
30897;BME280;64229;52.246;21.054;2023-04-07T09:20:06;100448.75;;;10.17;100.00
30897;BME280;64229;52.246;21.054;2023-04-07T09:22:38;100446.44;;;10.25;100.00
30897;BME280;64229;52.246;21.054;2023-04-07T09:25:17;100446.06;;;10.17;100.00
30897;BME280;64229;52.246;21.054;2023-04-07T09:30:22;100420.41;;;10.00;100.00
30897;BME280;64229;52.246;21.054;2023-04-07T09:32:47;100441.78;;;10.10;100.00
30897;BME280;64229;52.246;21.054;2023-04-07T09:35:13;100445.88;;;10.23;100.00
30897;BME280;64229;52.246;21.054;2023-04-07T09:37:38;100437.94;;;10.33;100.00
30897;BME280;64229;52.246;21.054;2023-04-07T09:40:04;100443.81;;;10.35;100.00
30897;BME280;64229;52.246;21.054;2023-04-07T09:42:29;100444.09;;;10.39;100.00
30897;BME280;64229;52.246;21.054;2023-04-07T09:44:58;100446.31;;;10.57;100.00
30897;BME280;64229;52.246;21.054;2023-04-07T09:47:27;100443.13;;;10.55;100.00
30897;BME280;64229;52.246;21.054;2023-04-07T09:49:55;100448.47;;;10.60;100.00
30897;BME280;64229;52.246;21.054;2023-04-07T09:52:49;100446.91;;;10.64;100.00
30897;BME280;64229;52.246;21.054;2023-04-07T09:55:20;100449.56;;;10.69;100.00
30897;BME280;64229;52.246;21.054;2023-04-07T09:57:48;100442.91;;;10.67;100.00
30897;BME280;64229;52.246;21.054;2023-04-07T10:00:14;100446.38;;;10.72;100.00
30897;BME280;64229;52.246;21.054;2023-04-07T10:02:40;100445.88;;;10.81;100.00
30897;BME280;64229;52.246;21.054;2023-04-07T10:05:07;100426.91;;;10.77;100.00
30897;BME280;64229;52.246;21.054;2023-04-07T10:07:33;100448.06;;;11.04;100.00
30897;BME280;64229;52.246;21.054;2023-04-07T10:09:59;100449.19;;;11.18;100.00
30897;BME280;64229;52.246;21.054;2023-04-07T10:12:26;100441.16;;;11.23;100.00
30897;BME280;64229;52.246;21.054;2023-04-07T10:14:51;100460.66;;;11.24;100.00
30897;BME280;64229;52.246;21.054;2023-04-07T10:17:19;100455.88;;;11.31;100.00
30897;BME280;64229;52.246;21.054;2023-04-07T10:19:47;100452.13;;;11.37;99.89
30897;BME280;64229;52.246;21.054;2023-04-07T10:22:13;100435.28;;;11.26;99.72
30897;BME280;64229;52.246;21.054;2023-04-07T10:24:53;100454.53;;;11.34;100.00
30897;BME280;64229;52.246;21.054;2023-04-07T10:27:26;100462.56;;;11.34;99.70
30897;BME280;64229;52.246;21.054;2023-04-07T10:29:53;100466.31;;;11.33;100.00
30897;BME280;64229;52.246;21.054;2023-04-07T10:32:18;100459.88;;;11.34;100.00
30897;BME280;64229;52.246;21.054;2023-04-07T10:37:16;100455.88;;;11.46;99.15
30897;BME280;64229;52.246;21.054;2023-04-07T10:39:45;100460.44;;;11.51;99.27
30897;BME280;64229;52.246;21.054;2023-04-07T10:45:02;100462.81;;;11.32;100.00
30897;BME280;64229;52.246;21.054;2023-04-07T10:47:28;100464.97;;;11.35;100.00
30897;BME280;64229;52.246;21.054;2023-04-07T10:52:42;100460.94;;;11.38;100.00
30897;BME280;64229;52.246;21.054;2023-04-07T10:58:24;100465.50;;;11.47;100.00
30897;BME280;64229;52.246;21.054;2023-04-07T11:03:54;100474.38;;;11.88;99.26
30897;BME280;64229;52.246;21.054;2023-04-07T11:06:20;100474.34;;;12.09;98.76
30897;BME280;64229;52.246;21.054;2023-04-07T11:08:47;100471.97;;;12.12;98.18
30897;BME280;64229;52.246;21.054;2023-04-07T11:11:20;100472.72;;;12.28;96.66
30897;BME280;64229;52.246;21.054;2023-04-07T11:13:58;100464.13;;;12.36;96.15
30897;BME280;64229;52.246;21.054;2023-04-07T11:16:35;100470.50;;;12.51;96.28
30897;BME280;64229;52.246;21.054;2023-04-07T11:19:01;100472.34;;;12.60;95.43
30897;BME280;64229;52.246;21.054;2023-04-07T11:21:26;100474.19;;;12.65;95.08
30897;BME280;64229;52.246;21.054;2023-04-07T11:23:51;100468.84;;;12.65;95.34
30897;BME280;64229;52.246;21.054;2023-04-07T11:26:17;100467.81;;;12.61;94.38
30897;BME280;64229;52.246;21.054;2023-04-07T11:28:47;100473.16;;;12.61;94.03
30897;BME280;64229;52.246;21.054;2023-04-07T11:31:27;100470.25;;;12.42;94.80
30897;BME280;64229;52.246;21.054;2023-04-07T11:34:00;100471.91;;;12.23;96.51
30897;BME280;64229;52.246;21.054;2023-04-07T11:36:33;100472.19;;;12.11;97.44
30897;BME280;64229;52.246;21.054;2023-04-07T11:38:59;100473.56;;;12.13;96.79
30897;BME280;64229;52.246;21.054;2023-04-07T11:41:27;100480.25;;;12.01;97.46
30897;BME280;64229;52.246;21.054;2023-04-07T11:44:08;100484.78;;;12.00;98.73
30897;BME280;64229;52.246;21.054;2023-04-07T11:46:35;100484.78;;;12.10;98.69
30897;BME280;64229;52.246;21.054;2023-04-07T11:49:12;100465.03;;;11.86;100.00
30897;BME280;64229;52.246;21.054;2023-04-07T11:51:38;100462.84;;;11.68;100.00
30897;BME280;64229;52.246;21.054;2023-04-07T11:54:03;100466.03;;;11.44;100.00
30897;BME280;64229;52.246;21.054;2023-04-07T11:56:29;100489.53;;;11.37;100.00
30897;BME280;64229;52.246;21.054;2023-04-07T11:58:55;100491.41;;;11.21;100.00
30897;BME280;64229;52.246;21.054;2023-04-07T12:01:21;100494.03;;;11.06;100.00
30897;BME280;64229;52.246;21.054;2023-04-07T12:03:57;100494.28;;;11.05;100.00
30897;BME280;64229;52.246;21.054;2023-04-07T12:06:36;100492.09;;;10.91;100.00
30897;BME280;64229;52.246;21.054;2023-04-07T12:09:06;100498.25;;;10.87;100.00
30897;BME280;64229;52.246;21.054;2023-04-07T12:11:32;100485.66;;;10.82;100.00
30897;BME280;64229;52.246;21.054;2023-04-07T12:13:58;100496.41;;;11.02;100.00
30897;BME280;64229;52.246;21.054;2023-04-07T12:16:23;100482.28;;;11.07;100.00
30897;BME280;64229;52.246;21.054;2023-04-07T12:18:49;100503.16;;;11.20;100.00
30897;BME280;64229;52.246;21.054;2023-04-07T12:21:18;100497.81;;;11.25;100.00
30897;BME280;64229;52.246;21.054;2023-04-07T12:23:45;100493.25;;;11.21;100.00
30897;BME280;64229;52.246;21.054;2023-04-07T12:26:11;100490.06;;;11.19;100.00
30897;BME280;64229;52.246;21.054;2023-04-07T12:28:37;100500.75;;;11.24;100.00
30897;BME280;64229;52.246;21.054;2023-04-07T12:31:03;100487.91;;;11.26;100.00
30897;BME280;64229;52.246;21.054;2023-04-07T12:33:28;100496.78;;;11.42;100.00
30897;BME280;64229;52.246;21.054;2023-04-07T12:35:54;100495.47;;;11.54;100.00
30897;BME280;64229;52.246;21.054;2023-04-07T12:38:19;100505.88;;;11.56;100.00
30897;BME280;64229;52.246;21.054;2023-04-07T12:40:45;100509.09;;;11.53;100.00
30897;BME280;64229;52.246;21.054;2023-04-07T12:43:11;100506.66;;;11.46;100.00
30897;BME280;64229;52.246;21.054;2023-04-07T12:45:36;100516.03;;;11.54;100.00
30897;BME280;64229;52.246;21.054;2023-04-07T12:48:02;100512.31;;;11.55;100.00
30897;BME280;64229;52.246;21.054;2023-04-07T12:50:28;100508.78;;;11.29;100.00
30897;BME280;64229;52.246;21.054;2023-04-07T12:52:54;100515.47;;;11.32;100.00
30897;BME280;64229;52.246;21.054;2023-04-07T12:55:19;100516.41;;;10.95;100.00
30897;BME280;64229;52.246;21.054;2023-04-07T12:57:45;100518.22;;;10.84;100.00